TimeEST,TemperatureF,Dew PointF,Humidity,Sea Level PressureIn,VisibilityMPH,Wind Direction,Wind SpeedMPH,Gust SpeedMPH,PrecipitationIn,Events,Conditions,WindDirDegrees,DateUTC
12:56 AM,48.0,35.1,61,30.19,10.0,NE,5.8,-,N/A,,Overcast,50,2012-12-07 05:56:00
1:41 AM,48.2,35.6,62,30.18,10.0,NE,3.5,-,N/A,,Overcast,40,2012-12-07 06:41:00
1:56 AM,48.0,36.0,63,30.18,10.0,NNE,3.5,-,N/A,,Overcast,30,2012-12-07 06:56:00
2:56 AM,48.0,36.0,63,30.16,10.0,NNE,5.8,-,N/A,,Overcast,30,2012-12-07 07:56:00
3:56 AM,48.9,36.0,61,30.15,10.0,NNE,5.8,-,N/A,,Overcast,30,2012-12-07 08:56:00
4:56 AM,48.9,37.0,64,30.14,10.0,NE,4.6,-,N/A,,Overcast,40,2012-12-07 09:56:00
5:56 AM,48.9,37.0,64,30.14,10.0,Variable,4.6,-,N/A,,Overcast,0,2012-12-07 10:56:00
6:56 AM,48.9,37.0,64,30.15,10.0,Variable,4.6,-,N/A,,Overcast,0,2012-12-07 11:56:00
7:56 AM,48.9,39.0,69,30.16,10.0,NNE,4.6,-,N/A,,Overcast,30,2012-12-07 12:56:00
8:56 AM,50.0,39.9,68,30.16,10.0,NNE,4.6,-,N/A,,Overcast,30,2012-12-07 13:56:00
9:56 AM,52.0,39.9,63,30.16,10.0,NE,4.6,-,N/A,,Overcast,40,2012-12-07 14:56:00
10:56 AM,53.1,42.1,66,30.14,10.0,ENE,5.8,-,N/A,,Overcast,60,2012-12-07 15:56:00
11:56 AM,55.0,44.1,67,30.11,10.0,ESE,5.8,-,N/A,,Overcast,110,2012-12-07 16:56:00
12:56 PM,57.0,44.1,62,30.07,10.0,SE,4.6,-,N/A,,Overcast,130,2012-12-07 17:56:00
1:56 PM,57.9,45.0,62,30.05,10.0,Calm,Calm,-,N/A,,Overcast,0,2012-12-07 18:56:00
2:56 PM,59.0,46.0,62,30.03,10.0,East,3.5,-,N/A,,Overcast,90,2012-12-07 19:56:00
3:56 PM,59.0,46.9,64,30.02,10.0,Calm,Calm,-,N/A,,Overcast,0,2012-12-07 20:56:00
4:56 PM,57.9,46.9,67,30.03,10.0,NNE,3.5,-,N/A,,Scattered Clouds,30,2012-12-07 21:56:00
5:05 PM,57.2,46.4,67,30.03,10.0,Calm,Calm,-,N/A,,Mostly Cloudy,0,2012-12-07 22:05:00
5:53 PM,53.6,46.4,77,30.03,10.0,Calm,Calm,-,N/A,,Scattered Clouds,0,2012-12-07 22:53:00
5:56 PM,52.0,46.9,83,30.04,10.0,Calm,Calm,-,N/A,,Scattered Clouds,0,2012-12-07 22:56:00
6:56 PM,52.0,46.9,83,30.04,10.0,ESE,3.5,-,N/A,,Clear,110,2012-12-07 23:56:00
7:56 PM,50.0,46.0,86,30.04,10.0,Calm,Calm,-,N/A,,Clear,0,2012-12-08 00:56:00
8:56 PM,46.9,45.0,93,30.04,9.0,Calm,Calm,-,N/A,,Clear,0,2012-12-08 01:56:00
9:56 PM,45.0,44.1,97,30.05,6.0,Calm,Calm,-,N/A,,Clear,0,2012-12-08 02:56:00
10:56 PM,44.1,42.1,93,30.06,5.0,Calm,Calm,-,N/A,,Clear,0,2012-12-08 03:56:00
11:56 PM,43.0,42.1,97,30.07,8.0,Calm,Calm,-,N/A,,Clear,0,2012-12-08 04:56:00